Terminal Aerodrome Forecast
Issued by NWS

Home | Current Version | Previous Version | Text Only | Print | Product List | Glossary On
Versions: 1 2 3 4 5 6 7 8 9 10 11 12 13 14 15 16 17 18 19
000
FTUS43 KDVN 230500
TAFCID
TAF
KCID 230520Z 2306/2406 16007KT P6SM BKN070
     FM231000 15008KT P6SM VCSH OVC060
     FM231400 17009KT 6SM -RA BR OVC040
     FM231900 21008KT P6SM SCT035 BKN120=

USA.gov is the U.S. government's official web portal to all federal, state and local government web resources and services.